^^
Datos históricos de la estación: Murcia-Puente Tocinos
Diario Informe para Abril 4, 2019 Unidades:  Inglés    Métrico   Ambas
Diario Semanal Mensual Anual Configurable
  Máximo: Mínimo: Media:
Temperatura: 64.9 °F 52.5 °F 59.4 °F
Punto de rocio: 50.7 °F 36 °F 44.1 °F
Humedad: 83% 37% 59%
Velocidad viento: 13mph 0mph 5.3mph
Racha viento: 23mph - -
Viento- - SSE
Presión: 29.7 in 29.5 in -
Precipitación: 0 in    
Historical Graphs
 
 
Tabla de datos para Abril 4, 2019
Hora Temperatura Punto de rocio Presión Viento Velocidad viento Racha viento Humedad Intensidad lluvia(por hora) Nubes
00:00 64.6 °F 47.1 °F 29.5 in SSW 5 mph 9 mph 53% 0 in CLR
00:05 64.4 °F 46.9 °F 29.5 in West 5.2 mph 4.6 mph 53% 0 in CLR
00:10 64.2 °F 46.8 °F 29.5 in South 4.3 mph 6.9 mph 53% 0 in CLR
00:15 64.2 °F 45.7 °F 29.5 in WSW 4.3 mph 5.8 mph 51% 0 in CLR
00:20 64.4 °F 44.8 °F 29.5 in WSW 4.3 mph 4.6 mph 49% 0 in CLR
00:25 64.4 °F 44.2 °F 29.5 in WNW 4.3 mph 9.2 mph 48% 0 in CLR
00:30 64.6 °F 43.3 °F 29.5 in NW 4.3 mph 9.2 mph 46% 0 in CLR
00:35 64.8 °F 42.3 °F 29.5 in NW 4.3 mph 16.1 mph 44% 0 in CLR
00:40 64.9 °F 40.6 °F 29.5 in NW 8.1 mph 15 mph 41% 0 in CLR
00:45 64.9 °F 40.6 °F 29.5 in NW 8.1 mph 12.7 mph 41% 0 in CLR
00:50 64.9 °F 40.6 °F 29.5 in WNW 8.1 mph 12.7 mph 41% 0 in CLR
00:55 64.8 °F 39.9 °F 29.5 in WNW 8.1 mph 12.7 mph 40% 0 in CLR
01:00 64.8 °F 39.9 °F 29.5 in WNW 8 mph 12 mph 40% 0 in CLR
01:05 64.6 °F 39.7 °F 29.5 in WNW 8.5 mph 10.7 mph 40% 0 in CLR
01:10 64.6 °F 39.7 °F 29.5 in WNW 7.6 mph 12.7 mph 40% 0 in CLR
01:15 64.2 °F 39.4 °F 29.5 in West 7.6 mph 9.2 mph 40% 0 in CLR
01:20 64 °F 39.2 °F 29.5 in WNW 6.9 mph 6.9 mph 40% 0 in CLR
01:25 63.9 °F 39 °F 29.5 in NW 6.9 mph 5.9 mph 40% 0 in CLR
01:30 63.9 °F 39.7 °F 29.5 in West 4 mph 3.5 mph 41% 0 in CLR
01:35 63.5 °F 39.9 °F 29.5 in ENE 4 mph 4.7 mph 42% 0 in CLR
01:40 63.1 °F 39.7 °F 29.5 in NE 2.4 mph 2.3 mph 42% 0 in CLR
01:45 63.1 °F 39 °F 29.5 in SW 2.4 mph 4.7 mph 41% 0 in CLR
01:50 63.1 °F 39.7 °F 29.5 in South 2.4 mph 5.8 mph 42% 0 in CLR
01:55 63.1 °F 38.5 °F 29.5 in SW 2.4 mph 5.8 mph 40% 0 in CLR
02:00 63.3 °F 38.5 °F 29.5 in WSW 3 mph 8 mph 40% 0 in CLR
02:05 63.3 °F 38.7 °F 29.5 in West 3.6 mph 3.5 mph 40% 0 in CLR
02:10 63.1 °F 39 °F 29.5 in West 3.6 mph 3.6 mph 41% 0 in CLR
02:15 63 °F 38.8 °F 29.5 in WSW 3.6 mph 4.6 mph 41% 0 in CLR
02:20 63 °F 38.1 °F 29.5 in West 2.9 mph 3.5 mph 40% 0 in CLR
02:25 63.1 °F 38.5 °F 29.5 in West 2.9 mph 4.6 mph 40% 0 in CLR
02:30 63 °F 38.8 °F 29.5 in SW 2.9 mph 2.3 mph 41% 0 in CLR
02:35 62.8 °F 38.7 °F 29.5 in SW 2.9 mph 2.3 mph 41% 0 in CLR
02:40 62.8 °F 38.7 °F 29.5 in SW 1.8 mph   41% 0 in CLR
02:45 62.6 °F 38.7 °F 29.5 in West 1.8 mph 9.2 mph 41% 0 in CLR
02:50 62.4 °F 39 °F 29.5 in WNW 3.6 mph 5.8 mph 42% 0 in CLR
02:55 62.2 °F 38.8 °F 29.5 in NNW 3.6 mph 5.8 mph 42% 0 in CLR
03:00 62.1 °F 39.4 °F 29.5 in NW 5 mph 8 mph 43% 0 in CLR
03:05 60.6 °F 43 °F 29.6 in NNE 4 mph 11.5 mph 52% 0 in CLR
03:10 59.2 °F 44.4 °F 29.6 in NNE 5.9 mph 9.2 mph 58% 0 in CLR
03:15 57.9 °F 46.6 °F 29.6 in NE 5.9 mph 9.2 mph 66% 0 in CLR
03:20 57.4 °F 48.4 °F 29.6 in NE 6.2 mph 8.1 mph 72% 0 in CLR
03:25 56.8 °F 49.6 °F 29.6 in NNE 6.2 mph 10.4 mph 77% 0 in CLR
03:30 56.5 °F 50 °F 29.6 in NNE 6.4 mph 9.2 mph 79% 0 in CLR
03:35 56.1 °F 50.4 °F 29.6 in NNE 6.4 mph 8.1 mph 81% 0 in CLR
03:40 55.9 °F 50.5 °F 29.6 in North 6.4 mph 10.4 mph 82% 0 in CLR
03:45 55.8 °F 50.7 °F 29.6 in NE 6.4 mph 9.2 mph 83% 0 in CLR
03:50 55.8 °F 50.7 °F 29.6 in NNE 6.2 mph 5.8 mph 83% 0 in CLR
03:55 55.6 °F 50.5 °F 29.6 in NNE 6.2 mph 8.1 mph 83% 0 in CLR
04:00 55.6 °F 50.5 °F 29.6 in NE 5 mph 9 mph 83% 0 in CLR
04:05 55.4 °F 50.4 °F 29.6 in NE 5.2 mph 8.1 mph 83% 0 in CLR
04:10 55.4 °F 50 °F 29.6 in NE 4.7 mph 10.4 mph 82% 0 in CLR
04:15 55.2 °F 49.8 °F 29.6 in NE 4.7 mph 6.4 mph 82% 0 in CLR
04:20 55.2 °F 49.8 °F 29.6 in NE 4.3 mph 6.2 mph 82% 0 in CLR
04:25 55 °F 49.3 °F 29.6 in NE 4.3 mph 4.6 mph 81% 0 in CLR
04:30 55 °F 48.9 °F 29.6 in NE 4.3 mph 8.1 mph 80% 0 in CLR
04:35 55 °F 48.9 °F 29.6 in NE 4.3 mph 4.6 mph 80% 0 in CLR
04:40 54.9 °F 48.7 °F 29.6 in NE 3.1 mph 4.6 mph 80% 0 in CLR
04:45 54.9 °F 48.6 °F 29.6 in NE 3.1 mph 5.8 mph 79% 0 in CLR
04:50 54.9 °F 48.6 °F 29.6 in NE 4 mph 5.4 mph 79% 0 in CLR
04:55 54.9 °F 48.6 °F 29.6 in NNE 4 mph 4.6 mph 79% 0 in CLR
05:00 54.7 °F 48.4 °F 29.6 in NE 5 mph 7 mph 79% 0 in CLR
05:05 54.7 °F 48.4 °F 29.6 in East 4 mph 6.9 mph 79% 0 in CLR
05:10 54.9 °F 48.6 °F 29.6 in ENE 4.7 mph 6.9 mph 79% 0 in CLR
05:15 54.9 °F 48 °F 29.6 in NNE 4.7 mph 5.8 mph 78% 0 in CLR
05:20 54.7 °F 48 °F 29.6 in ENE 4 mph 8.1 mph 78% 0 in CLR
05:25 54.7 °F 48 °F 29.6 in ENE 4 mph 8.1 mph 78% 0 in CLR
05:30 54.7 °F 48 °F 29.6 in East 3.6 mph 5.8 mph 78% 0 in CLR
05:35 54.5 °F 47.8 °F 29.6 in East 3.6 mph 5.8 mph 78% 0 in CLR
05:40 54.5 °F 47.8 °F 29.6 in East 3.6 mph 3.5 mph 78% 0 in CLR
05:45 54.3 °F 47.3 °F 29.6 in ESE 3.6 mph 6.4 mph 77% 0 in CLR
05:50 54.1 °F 47.1 °F 29.6 in ENE 4 mph 6.9 mph 77% 0 in CLR
05:55 54.3 °F 46.9 °F 29.6 in NE 4 mph 6.9 mph 76% 0 in CLR
06:00 54.3 °F 46.9 °F 29.6 in NE 5 mph 9 mph 76% 0 in CLR
06:05 54.5 °F 46.8 °F 29.6 in East 4.3 mph 4.6 mph 75% 0 in CLR
06:10 54.5 °F 46.8 °F 29.6 in NE 3.6 mph 3.5 mph 75% 0 in CLR
06:15 54.3 °F 46.6 °F 29.6 in NE 3.6 mph 3.5 mph 75% 0 in CLR
06:20 54.3 °F 46.9 °F 29.6 in ENE 2.4 mph 4.6 mph 76% 0 in CLR
06:25 54.3 °F 46.9 °F 29.6 in NE 2.4 mph 4.6 mph 76% 0 in CLR
06:30 54.3 °F 46.9 °F 29.6 in NE 2.9 mph 5.2 mph 76% 0 in CLR
06:35 54.1 °F 46.8 °F 29.6 in NE 2.9 mph 3.6 mph 76% 0 in CLR
06:40 54.1 °F 46.8 °F 29.6 in ENE 2.9 mph 4.6 mph 76% 0 in CLR
06:45 54.1 °F 46.8 °F 29.6 in ENE 2.9 mph 4.6 mph 76% 0 in CLR
06:50 54.1 °F 46.8 °F 29.6 in ENE 2.4 mph 3.5 mph 76% 0 in CLR
06:55 54.1 °F 46.8 °F 29.6 in East 2.4 mph 4.6 mph 76% 0 in CLR
07:00 54.1 °F 46.8 °F 29.6 in ENE 2 mph 5 mph 76% 0 in CLR
07:05 54.1 °F 46.8 °F 29.6 in ENE 2.4 mph 2.3 mph 76% 0 in CLR
07:10 54.1 °F 46.8 °F 29.6 in ENE 2 mph 4.6 mph 76% 0 in CLR
07:15 54 °F 46.6 °F 29.6 in NNE 2 mph 4.6 mph 76% 0 in CLR
07:20 54 °F 46.9 °F 29.6 in NNE 2.4 mph 2.3 mph 77% 0 in CLR
07:25 53.6 °F 46.6 °F 29.6 in NNE 2.4 mph 2.3 mph 77% 0 in CLR
07:30 53.4 °F 46.8 °F 29.6 in NNE 1.4 mph 3.5 mph 78% 0 in CLR
07:35 53.2 °F 46.6 °F 29.6 in NNW 1.4 mph 4.6 mph 78% 0 in CLR
07:40 53.1 °F 46.8 °F 29.6 in NNW 2 mph 3.1 mph 79% 0 in CLR
07:45 52.9 °F 46.6 °F 29.6 in NNW 2 mph 1.2 mph 79% 0 in CLR
07:50 52.7 °F 46.8 °F 29.6 in NNW 1.8 mph 3.5 mph 80% 0 in CLR
07:55 52.7 °F 46.8 °F 29.6 in NNW 1.8 mph 3.5 mph 80% 0 in CLR
08:00 52.5 °F 46.6 °F 29.6 in NNW 2 mph 3 mph 80% 0 in CLR
08:05 52.5 °F 46.6 °F 29.6 in NNW 2 mph 2.3 mph 80% 0 in CLR
08:10 52.5 °F 46.6 °F 29.6 in NW 1.8 mph 4.6 mph 80% 0 in CLR
08:15 52.5 °F 46.9 °F 29.6 in NW 1.8 mph 4.6 mph 81% 0 in CLR
08:20 52.5 °F 46.9 °F 29.6 in NW 2.9 mph 3.5 mph 81% 0 in CLR
08:25 52.5 °F 46.9 °F 29.6 in NW 2.9 mph 4.6 mph 81% 0 in CLR
08:30 52.7 °F 46.9 °F 29.6 in NW 2.4 mph 4.6 mph 81% 0 in CLR
08:35 52.9 °F 47.1 °F 29.6 in NW 2.4 mph 3.1 mph 81% 0 in CLR
08:40 52.9 °F 46.9 °F 29.6 in NW 2 mph 3.5 mph 80% 0 in CLR
08:45 53.1 °F 47.1 °F 29.6 in NW 2 mph 3.5 mph 80% 0 in CLR
08:50 53.1 °F 47.1 °F 29.6 in NW 2 mph 3.5 mph 80% 0 in CLR
08:55 53.2 °F 47.1 °F 29.6 in NW 2 mph 2.3 mph 80% 0 in CLR
09:00 53.4 °F 47.5 °F 29.6 in NW 2 mph 3 mph 80% 0 in CLR
09:05 53.8 °F 47.8 °F 29.6 in NW 1.8 mph 2.3 mph 80% 0 in CLR
09:10 53.8 °F 47.5 °F 29.6 in NW 1.4 mph   79% 0 in CLR
09:15 54 °F 47.7 °F 29.6 in NW 1.4 mph   79% 0 in CLR
09:20 54.1 °F 47.5 °F 29.6 in Calm     78% 0 in CLR
09:25 54.7 °F 48 °F 29.6 in Calm   4.6 mph 78% 0 in CLR
09:30 55.4 °F 48 °F 29.6 in NE 1.8 mph 4.6 mph 76% 0 in CLR
09:35 55.9 °F 48.6 °F 29.6 in NW 1.8 mph 3.5 mph 76% 0 in CLR
09:40 56.5 °F 48.6 °F 29.6 in NW 2 mph   75% 0 in CLR
09:45 57 °F 48.4 °F 29.6 in NE 2 mph 3.6 mph 73% 0 in CLR
09:50 57.2 °F 47.5 °F 29.6 in SSW 1.8 mph 4.6 mph 70% 0 in CLR
09:55 56.8 °F 47.1 °F 29.6 in SSE 1.8 mph 3.5 mph 70% 0 in CLR
10:00 56.8 °F 47.5 °F 29.6 in SSE 2 mph 5 mph 71% 0 in CLR
10:05 57 °F 47.3 °F 29.6 in SSE 2.9 mph 5.8 mph 70% 0 in CLR
10:10 57.4 °F 47.3 °F 29.6 in ESE 3.6 mph 5.8 mph 69% 0 in CLR
10:15 57.2 °F 46.8 °F 29.6 in South 3.6 mph 5.8 mph 68% 0 in CLR
10:20 57.4 °F 47.3 °F 29.6 in SSW 3.1 mph 2.3 mph 69% 0 in CLR
10:25 57.6 °F 47.1 °F 29.6 in East 3.1 mph 5.8 mph 68% 0 in CLR
10:30 57.7 °F 47.1 °F 29.6 in East 2.9 mph 4.7 mph 68% 0 in CLR
10:35 57.7 °F 46.9 °F 29.6 in South 2.9 mph 6.9 mph 67% 0 in CLR
10:40 57.7 °F 47.1 °F 29.6 in South 4.3 mph 3.5 mph 68% 0 in CLR
10:45 58.5 °F 47.5 °F 29.6 in SE 4.3 mph 3.5 mph 67% 0 in CLR
10:50 58.6 °F 46.9 °F 29.6 in SE 2.9 mph 6.9 mph 65% 0 in CLR
10:55 58.6 °F 46.9 °F 29.6 in SE 2.9 mph 4.7 mph 65% 0 in CLR
11:00 58.8 °F 46.2 °F 29.6 in South 3 mph 9 mph 63% 0 in CLR
11:05 58.5 °F 45.9 °F 29.6 in West 3.6 mph 6.9 mph 63% 0 in CLR
11:10 58.6 °F 46 °F 29.6 in SSW 4.3 mph 5.8 mph 63% 0 in CLR
11:15 58.5 °F 45.1 °F 29.6 in WNW 4.3 mph 2.3 mph 61% 0 in CLR
11:20 58.8 °F 45.3 °F 29.6 in WSW 2 mph 3.5 mph 61% 0 in CLR
11:25 59.5 °F 45.7 °F 29.6 in East 2 mph 4.6 mph 60% 0 in CLR
11:30 60.1 °F 44.8 °F 29.6 in SW 2.4 mph 4.6 mph 57% 0 in CLR
11:35 60.3 °F 43.5 °F 29.6 in NW 2.4 mph 6.2 mph 54% 0 in CLR
11:40 60.4 °F 42.3 °F 29.6 in SE 3.6 mph 4.6 mph 51% 0 in CLR
11:45 60.6 °F 41.9 °F 29.6 in ENE 3.6 mph 5.8 mph 50% 0 in CLR
11:50 61 °F 41.7 °F 29.7 in NE 2.9 mph 4.6 mph 49% 0 in CLR
11:55 60.6 °F 43 °F 29.7 in SW 2.9 mph 8.1 mph 52% 0 in CLR
12:00 60.3 °F 43.2 °F 29.7 in West 5 mph 12 mph 53% 0 in CLR
12:05 59.5 °F 42.4 °F 29.7 in WNW 5.2 mph 8.1 mph 53% 0 in CLR
12:10 59.4 °F 41.7 °F 29.7 in WNW 5.9 mph 6.9 mph 52% 0 in CLR
12:15 59.4 °F 41.2 °F 29.7 in West 5.9 mph 4.6 mph 51% 0 in CLR
12:20 59.5 °F 40.3 °F 29.7 in West 3.6 mph 2.3 mph 49% 0 in CLR
12:25 60.1 °F 39.2 °F 29.7 in West 3.6 mph 2.3 mph 46% 0 in CLR
12:30 60.4 °F 39.6 °F 29.7 in ENE 2 mph 4.6 mph 46% 0 in CLR
12:35 60.8 °F 39.9 °F 29.7 in NE 2 mph 4.6 mph 46% 0 in CLR
12:40 61.3 °F 40.5 °F 29.7 in SW 2.4 mph 11.5 mph 46% 0 in CLR
12:45 61.3 °F 39.7 °F 29.7 in WSW 2.4 mph 10.4 mph 45% 0 in CLR
12:50 61.2 °F 40.3 °F 29.7 in WSW 5.4 mph 5.8 mph 46% 0 in CLR
12:55 61.2 °F 40.3 °F 29.7 in West 5.4 mph 4.7 mph 46% 0 in CLR
13:00 60.8 °F 39.7 °F 29.7 in WSW 5 mph 6 mph 46% 0 in CLR
13:05 60.4 °F 39 °F 29.7 in WSW 4 mph 4.6 mph 45% 0 in CLR
13:10 60.8 °F 39.4 °F 29.7 in South 2.4 mph 5.8 mph 45% 0 in CLR
13:15 61.2 °F 39.6 °F 29.7 in SSE 2.4 mph 8.1 mph 45% 0 in CLR
13:20 61.5 °F 39.4 °F 29.6 in SSW 4.7 mph 4.6 mph 44% 0 in CLR
13:25 61.9 °F 39 °F 29.6 in SSE 4.7 mph 8.1 mph 43% 0 in CLR
13:30 62.1 °F 38.7 °F 29.6 in South 3.6 mph 6.9 mph 42% 0 in CLR
13:35 62.1 °F 38.7 °F 29.6 in ESE 3.6 mph 4.6 mph 42% 0 in CLR
13:40 62.1 °F 36.1 °F 29.6 in ESE 4.3 mph 8.1 mph 38% 0 in CLR
13:45 62.2 °F 36.3 °F 29.6 in SE 4.3 mph 6.9 mph 38% 0 in CLR
13:50 62.6 °F 36 °F 29.6 in SE 5.4 mph 6.9 mph 37% 0 in CLR
13:55 63 °F 36.3 °F 29.6 in SSE 5.4 mph 5.4 mph 37% 0 in CLR
14:00 63.3 °F 37.2 °F 29.6 in SE 5 mph 12 mph 38% 0 in CLR
14:05 63 °F 36.9 °F 29.6 in East 5.2 mph 6.9 mph 38% 0 in CLR
14:10 63.1 °F 36.3 °F 29.6 in SE 5.9 mph 8.1 mph 37% 0 in CLR
14:15 63.3 °F 36.7 °F 29.6 in ESE 5.9 mph 5.8 mph 37% 0 in CLR
14:20 63.1 °F 37 °F 29.6 in SE 5.4 mph 8.1 mph 38% 0 in CLR
14:25 63 °F 42.4 °F 29.6 in SE 5.4 mph 20.7 mph 47% 0 in CLR
14:30 62.8 °F 43.3 °F 29.6 in SE 7.4 mph 15 mph 49% 0 in CLR
14:35 62.8 °F 43.3 °F 29.6 in ESE 7.4 mph 16.1 mph 49% 0 in CLR
14:40 62.6 °F 42.6 °F 29.6 in SSE 9.2 mph 12.7 mph 48% 0 in CLR
14:45 62.4 °F 43 °F 29.6 in SE 9.2 mph 15 mph 49% 0 in CLR
14:50 62.4 °F 43 °F 29.6 in SSE 8.7 mph 15 mph 49% 0 in CLR
14:55 62.4 °F 41.9 °F 29.6 in East 8.7 mph 15 mph 47% 0 in CLR
15:00 62.4 °F 40.8 °F 29.6 in SE 9 mph 15 mph 45% 0 in CLR
15:05 63 °F 42.4 °F 29.6 in ESE 9.7 mph 17.3 mph 47% 0 in CLR
15:10 63.1 °F 42.6 °F 29.6 in NE 10 mph 15 mph 47% 0 in CLR
15:15 63.3 °F 42.3 °F 29.6 in SSE 10 mph 11.4 mph 46% 0 in CLR
15:20 63 °F 40.6 °F 29.6 in SSE 10.2 mph 10.4 mph 44% 0 in CLR
15:25 63 °F 43 °F 29.6 in ESE 10.2 mph 18.4 mph 48% 0 in CLR
15:30 63 °F 40.6 °F 29.6 in South 9.7 mph 11.5 mph 44% 0 in CLR
15:35 63.3 °F 41 °F 29.6 in SE 9.7 mph 15.6 mph 44% 0 in CLR
15:40 63.3 °F 41 °F 29.6 in SE 9.7 mph 11.5 mph 44% 0 in CLR
15:45 63.9 °F 42.1 °F 29.6 in SE 9.7 mph 17.3 mph 45% 0 in CLR
15:50 63.9 °F 41.5 °F 29.6 in SSE 8.7 mph 18.4 mph 44% 0 in CLR
15:55 63.7 °F 41.4 °F 29.6 in SSE 8.7 mph 11.8 mph 44% 0 in CLR
16:00 63.9 °F 41 °F 29.6 in SSE 10 mph 18 mph 43% 0 in CLR
16:05 63.5 °F 40.6 °F 29.6 in SE 10.2 mph 12.7 mph 43% 0 in CLR
16:10 63.7 °F 43.2 °F 29.6 in East 11.4 mph 16.1 mph 47% 0 in CLR
16:15 63.9 °F 43.2 °F 29.6 in ESE 11.4 mph 16.1 mph 47% 0 in CLR
16:20 64 °F 42.3 °F 29.6 in ESE 10.7 mph 15 mph 45% 0 in CLR
16:25 63.5 °F 43 °F 29.6 in SSE 10.7 mph 12.7 mph 47% 0 in CLR
16:30 63.7 °F 42.4 °F 29.6 in East 11.2 mph 11.5 mph 46% 0 in CLR
16:35 63.9 °F 42.1 °F 29.6 in SE 11.2 mph 15 mph 45% 0 in CLR
16:40 63.7 °F 41.9 °F 29.6 in South 9.7 mph 13.5 mph 45% 0 in CLR
16:45 63.7 °F 41.4 °F 29.6 in SE 9.7 mph 13.8 mph 44% 0 in CLR
16:50 64 °F 42.3 °F 29.6 in SE 7.6 mph 11.5 mph 45% 0 in CLR
16:55 64.4 °F 42.6 °F 29.6 in ESE 7.6 mph 13.8 mph 45% 0 in CLR
17:00 64.6 °F 42.6 °F 29.6 in SE 8 mph 17 mph 45% 0 in CLR
17:05 64.8 °F 43.5 °F 29.6 in ESE 8.5 mph 12.7 mph 46% 0 in CLR
17:10 64.6 °F 42.6 °F 29.6 in SE 10 mph 15 mph 45% 0 in CLR
17:15 64.6 °F 43.9 °F 29.6 in East 10 mph 11.5 mph 47% 0 in CLR
17:20 64 °F 43.9 °F 29.6 in SSE 10 mph 11.5 mph 48% 0 in CLR
17:25 64.2 °F 43.5 °F 29.6 in SSE 10 mph 17.3 mph 47% 0 in CLR
17:30 64.2 °F 43.5 °F 29.6 in SE 9.7 mph 12.7 mph 47% 0 in CLR
17:35 63.9 °F 43.2 °F 29.6 in SE 9.7 mph 12.7 mph 47% 0 in CLR
17:40 64 °F 43.3 °F 29.6 in SE 9.7 mph 15 mph 47% 0 in CLR
17:45 64 °F 43.9 °F 29.6 in SSE 9.7 mph 11.5 mph 48% 0 in CLR
17:50 64 °F 43.9 °F 29.6 in SE 10 mph 17.3 mph 48% 0 in CLR
17:55 63.9 °F 44.2 °F 29.6 in SE 10 mph 16.8 mph 49% 0 in CLR
18:00 63.3 °F 43.9 °F 29.6 in SE 10 mph 17 mph 49% 0 in CLR
18:05 63.7 °F 43.5 °F 29.6 in SE 10.7 mph 18.5 mph 48% 0 in CLR
18:10 63.3 °F 43.9 °F 29.6 in SSE 11.8 mph 17.3 mph 49% 0 in CLR
18:15 63.1 °F 43.7 °F 29.6 in SSE 11.8 mph 12.7 mph 49% 0 in CLR
18:20 63 °F 43.5 °F 29.6 in SE 10.2 mph 15 mph 49% 0 in CLR
18:25 62.8 °F 43.9 °F 29.6 in ESE 10.2 mph 23 mph 50% 0 in CLR
18:30 62.4 °F 44.1 °F 29.6 in SE 11.8 mph 20.7 mph 51% 0 in CLR
18:35 62.4 °F 44.1 °F 29.6 in SE 11.8 mph 12.7 mph 51% 0 in CLR
18:40 62.2 °F 44.4 °F 29.6 in SE 10 mph 13.8 mph 52% 0 in CLR
18:45 62.2 °F 43.9 °F 29.6 in SE 10 mph 17.8 mph 51% 0 in CLR
18:50 62.1 °F 43.7 °F 29.6 in SE 9.2 mph 16.1 mph 51% 0 in CLR
18:55 61.5 °F 43.7 °F 29.6 in SSE 9.2 mph 19.6 mph 52% 0 in CLR
19:00 61.3 °F 44.1 °F 29.6 in SSE 13 mph 20 mph 53% 0 in CLR
19:05 61.3 °F 44.1 °F 29.6 in SE 12.5 mph 18.4 mph 53% 0 in CLR
19:10 61.2 °F 44.4 °F 29.6 in South 10.7 mph 15 mph 54% 0 in CLR
19:15 61.2 °F 43.9 °F 29.6 in SSE 10.7 mph 15 mph 53% 0 in CLR
19:20 61 °F 44.2 °F 29.6 in ESE 10 mph 12.7 mph 54% 0 in CLR
19:25 61 °F 43.7 °F 29.6 in SE 10 mph 17.3 mph 53% 0 in CLR
19:30 61 °F 43.7 °F 29.6 in SE 8.1 mph 15 mph 53% 0 in CLR
19:35 60.6 °F 43.3 °F 29.6 in SSE 8.1 mph 15 mph 53% 0 in CLR
19:40 60.6 °F 43.9 °F 29.6 in SE 9.2 mph 18.4 mph 54% 0 in CLR
19:45 60.4 °F 43.7 °F 29.6 in SE 9.2 mph 11.5 mph 54% 0 in CLR
19:50 60.4 °F 43.2 °F 29.6 in SE 8.5 mph 15 mph 53% 0 in CLR
19:55 60.4 °F 43.2 °F 29.6 in South 8.5 mph 9.2 mph 53% 0 in CLR
20:00 60.3 °F 43.2 °F 29.6 in South 8 mph 12 mph 53% 0 in CLR
20:05 60.3 °F 42.6 °F 29.6 in SE 7.6 mph 12.7 mph 52% 0 in CLR
20:10 60.1 °F 43 °F 29.6 in ESE 6.9 mph 12.7 mph 53% 0 in CLR
20:15 60.1 °F 43 °F 29.6 in ESE 6.9 mph 11.5 mph 53% 0 in CLR
20:20 59.9 °F 43.2 °F 29.6 in South 7.6 mph 7.4 mph 54% 0 in CLR
20:25 59.7 °F 43 °F 29.6 in SSE 7.6 mph 10.4 mph 54% 0 in CLR
20:30 59.5 °F 43.3 °F 29.6 in SSE 7.4 mph 8.1 mph 55% 0 in CLR
20:35 59.5 °F 43.9 °F 29.6 in South 7.4 mph 8.1 mph 56% 0 in CLR
20:40 59.5 °F 43.9 °F 29.6 in SSW 5.9 mph 10.4 mph 56% 0 in CLR
20:45 59.4 °F 44.1 °F 29.6 in South 5.9 mph 12.3 mph 57% 0 in CLR
20:50 59.2 °F 43.9 °F 29.6 in South 6.4 mph 10.4 mph 57% 0 in CLR
20:55 59 °F 44.2 °F 29.6 in SE 6.4 mph 9.2 mph 58% 0 in CLR
21:00 59.2 °F 44.4 °F 29.6 in SSE 7 mph 10 mph 58% 0 in CLR
21:05 59 °F 44.2 °F 29.6 in South 6.4 mph 11.4 mph 58% 0 in CLR
21:10 58.8 °F 44.4 °F 29.6 in SE 6.2 mph 9.2 mph 59% 0 in CLR
21:15 58.6 °F 44.2 °F 29.6 in SSE 6.2 mph 11.5 mph 59% 0 in CLR
21:20 58.6 °F 44.8 °F 29.6 in South 6.4 mph 10.4 mph 60% 0 in CLR
21:25 58.5 °F 44.6 °F 29.6 in ESE 6.4 mph 10.4 mph 60% 0 in CLR
21:30 58.5 °F 44.6 °F 29.6 in South 6.9 mph 5.8 mph 60% 0 in CLR
21:35 58.5 °F 44.6 °F 29.6 in South 6.9 mph 9.2 mph 60% 0 in CLR
21:40 58.5 °F 44.6 °F 29.6 in SE 4.7 mph 8.1 mph 60% 0 in CLR
21:45 58.5 °F 44.6 °F 29.6 in East 4.7 mph 9.2 mph 60% 0 in CLR
21:50 58.5 °F 44.6 °F 29.6 in SE 5.4 mph 8.1 mph 60% 0 in CLR
21:55 58.5 °F 44.6 °F 29.6 in SSW 5.4 mph 6.9 mph 60% 0 in CLR
22:00 58.3 °F 44.4 °F 29.6 in South 5 mph 7 mph 60% 0 in CLR
22:05 58.3 °F 45 °F 29.6 in South 4.7 mph 4.7 mph 61% 0 in CLR
22:10 58.3 °F 44.4 °F 29.6 in SSW 2.4 mph 3.5 mph 60% 0 in CLR
22:15 58.3 °F 44.4 °F 29.6 in South 2.4 mph 4.6 mph 60% 0 in CLR
22:20 58.3 °F 44.4 °F 29.6 in SSE 2.9 mph 8.1 mph 60% 0 in CLR
22:25 58.3 °F 44.4 °F 29.6 in WSW 2.9 mph 4.6 mph 60% 0 in CLR
22:30 58.3 °F 44.4 °F 29.6 in WSW 3.1 mph 4.6 mph 60% 0 in CLR
22:35 58.5 °F 45.1 °F 29.6 in SSE 3.1 mph 5.2 mph 61% 0 in CLR
22:40 58.5 °F 44.6 °F 29.6 in SSW 3.6 mph 5.8 mph 60% 0 in CLR
22:45 58.5 °F 45.1 °F 29.6 in SE 3.6 mph 8.1 mph 61% 0 in CLR
22:50 58.3 °F 45 °F 29.6 in SE 3.6 mph 8.1 mph 61% 0 in CLR
22:55 58.3 °F 45 °F 29.6 in SSW 3.6 mph 5.8 mph 61% 0 in CLR
23:00 58.3 °F 45 °F 29.6 in South 3 mph 6 mph 61% 0 in CLR
23:05 58.3 °F 45 °F 29.6 in South 3.1 mph 4.6 mph 61% 0 in CLR
23:10 58.1 °F 44.8 °F 29.6 in SE 3.6 mph 5.8 mph 61% 0 in CLR
23:15 58.1 °F 45.1 °F 29.6 in SE 3.6 mph 2.3 mph 62% 0 in CLR
23:20 58.1 °F 44.8 °F 29.6 in WSW 2.4 mph 4.6 mph 61% 0 in CLR
23:25 58.3 °F 45.3 °F 29.6 in SE 2.4 mph 5.2 mph 62% 0 in CLR
23:30 58.3 °F 45 °F 29.6 in South 3.1 mph 4.6 mph 61% 0 in CLR
23:35 58.1 °F 45.1 °F 29.6 in South 3.1 mph 3.5 mph 62% 0 in CLR
23:40 58.1 °F 45.1 °F 29.6 in South 2.4 mph 3.5 mph 62% 0 in CLR
23:45 58.3 °F 45.3 °F 29.6 in ESE 2.4 mph 4.6 mph 62% 0 in CLR
23:50 58.3 °F 45.3 °F 29.6 in SSE 2.4 mph 4.6 mph 62% 0 in CLR
23:55 58.3 °F 45.3 °F 29.6 in SSW 2.4 mph 4.6 mph 62% 0 in CLR
Murcia-Puente Tocinos, España
Compliments of Weather Underground - 2.75 mb

La estación de MeteoMurcia.com, publica sus datos en los siguientes proyectos:

Weather Underground PWS IMURCIAP2 Meteoclimatic www.awekas.at

W3Counter
Web Analytics